sensor_id;sensor_type;location;lat;lon;timestamp;pressure;altitude;pressure_sealevel;temperature;humidity
74218;BME280;62579;47.288;18.646;2022-09-17T00:02:16;99137.66;;;13.30;87.73
74218;BME280;62579;47.288;18.646;2022-09-17T00:04:41;99139.28;;;13.26;87.91
74218;BME280;62579;47.288;18.646;2022-09-17T00:07:06;99129.47;;;13.09;88.58
74218;BME280;62579;47.288;18.646;2022-09-17T00:09:32;99114.47;;;13.23;88.06
74218;BME280;62579;47.288;18.646;2022-09-17T00:11:57;99105.62;;;13.31;87.84
74218;BME280;62579;47.288;18.646;2022-09-17T00:14:22;99104.59;;;13.20;88.03
74218;BME280;62579;47.288;18.646;2022-09-17T00:16:47;99117.00;;;13.21;88.26
74218;BME280;62579;47.288;18.646;2022-09-17T00:19:15;99118.41;;;13.15;88.35
74218;BME280;62579;47.288;18.646;2022-09-17T00:21:41;99117.19;;;13.23;88.20
74218;BME280;62579;47.288;18.646;2022-09-17T00:24:06;99115.19;;;13.24;88.13
74218;BME280;62579;47.288;18.646;2022-09-17T00:26:32;99109.06;;;13.10;88.65
74218;BME280;62579;47.288;18.646;2022-09-17T00:28:58;99107.19;;;13.26;87.71
74218;BME280;62579;47.288;18.646;2022-09-17T00:31:24;99110.66;;;13.27;87.90
74218;BME280;62579;47.288;18.646;2022-09-17T00:33:49;99104.88;;;13.30;87.75
74218;BME280;62579;47.288;18.646;2022-09-17T00:36:14;99094.28;;;13.27;87.74
74218;BME280;62579;47.288;18.646;2022-09-17T00:38:40;99090.28;;;13.28;87.84
74218;BME280;62579;47.288;18.646;2022-09-17T00:41:05;99082.59;;;13.26;87.84
74218;BME280;62579;47.288;18.646;2022-09-17T00:43:41;99079.75;;;13.32;86.96
74218;BME280;62579;47.288;18.646;2022-09-17T00:46:28;99076.06;;;13.29;87.47
74218;BME280;62579;47.288;18.646;2022-09-17T00:48:55;99072.69;;;13.36;86.71
74218;BME280;62579;47.288;18.646;2022-09-17T00:51:24;99073.88;;;13.28;87.18
74218;BME280;62579;47.288;18.646;2022-09-17T00:53:51;99073.34;;;13.29;87.23
74218;BME280;62579;47.288;18.646;2022-09-17T00:56:18;99070.47;;;13.35;86.65
74218;BME280;62579;47.288;18.646;2022-09-17T00:58:46;99081.34;;;13.27;86.83
74218;BME280;62579;47.288;18.646;2022-09-17T01:01:12;99073.75;;;13.33;86.62
74218;BME280;62579;47.288;18.646;2022-09-17T01:03:38;99081.03;;;13.31;85.64
74218;BME280;62579;47.288;18.646;2022-09-17T01:16:47;99099.09;;;13.34;85.00
74218;BME280;62579;47.288;18.646;2022-09-17T01:22:16;99093.66;;;13.20;84.77
74218;BME280;62579;47.288;18.646;2022-09-17T01:24:45;99099.41;;;13.30;84.50
74218;BME280;62579;47.288;18.646;2022-09-17T01:29:47;99111.09;;;13.31;83.77
74218;BME280;62579;47.288;18.646;2022-09-17T01:32:22;99116.87;;;13.27;84.08
74218;BME280;62579;47.288;18.646;2022-09-17T01:37:24;99115.75;;;13.22;84.24
74218;BME280;62579;47.288;18.646;2022-09-17T01:40:04;99116.81;;;13.19;83.38
74218;BME280;62579;47.288;18.646;2022-09-17T01:42:44;99120.72;;;13.11;84.18
74218;BME280;62579;47.288;18.646;2022-09-17T01:45:13;99124.00;;;13.30;83.26
74218;BME280;62579;47.288;18.646;2022-09-17T01:47:50;99121.34;;;13.17;83.71
74218;BME280;62579;47.288;18.646;2022-09-17T01:50:19;99121.03;;;13.07;83.99
74218;BME280;62579;47.288;18.646;2022-09-17T01:52:46;99114.50;;;13.10;83.39
74218;BME280;62579;47.288;18.646;2022-09-17T01:55:14;99108.84;;;13.08;82.89
74218;BME280;62579;47.288;18.646;2022-09-17T02:02:31;99098.56;;;13.01;83.05
74218;BME280;62579;47.288;18.646;2022-09-17T02:05:00;99102.88;;;12.97;83.39
74218;BME280;62579;47.288;18.646;2022-09-17T02:07:26;99096.53;;;13.02;83.25
74218;BME280;62579;47.288;18.646;2022-09-17T02:09:56;99100.34;;;13.12;82.76
74218;BME280;62579;47.288;18.646;2022-09-17T02:12:27;99096.00;;;13.16;82.52
74218;BME280;62579;47.288;18.646;2022-09-17T02:14:53;99103.78;;;13.12;82.42
74218;BME280;62579;47.288;18.646;2022-09-17T02:17:21;99097.06;;;13.13;82.09
74218;BME280;62579;47.288;18.646;2022-09-17T02:19:49;99092.47;;;13.08;82.56
74218;BME280;62579;47.288;18.646;2022-09-17T02:22:20;99094.13;;;13.11;82.14
74218;BME280;62579;47.288;18.646;2022-09-17T02:27:23;99091.81;;;13.02;82.38
74218;BME280;62579;47.288;18.646;2022-09-17T02:29:55;99090.69;;;12.98;82.35
74218;BME280;62579;47.288;18.646;2022-09-17T02:32:20;99087.03;;;12.95;82.35
74218;BME280;62579;47.288;18.646;2022-09-17T02:34:45;99077.03;;;12.98;81.76
74218;BME280;62579;47.288;18.646;2022-09-17T02:37:11;99073.88;;;12.94;81.70
74218;BME280;62579;47.288;18.646;2022-09-17T02:39:36;99071.75;;;13.00;81.47
74218;BME280;62579;47.288;18.646;2022-09-17T02:47:09;99054.06;;;12.93;81.61
74218;BME280;62579;47.288;18.646;2022-09-17T02:49:42;99052.69;;;12.87;81.71
74218;BME280;62579;47.288;18.646;2022-09-17T02:52:16;99046.50;;;12.86;81.75
74218;BME280;62579;47.288;18.646;2022-09-17T02:57:14;99043.56;;;12.84;81.71
74218;BME280;62579;47.288;18.646;2022-09-17T03:02:34;99018.13;;;12.69;81.92
74218;BME280;62579;47.288;18.646;2022-09-17T03:05:02;99016.00;;;12.75;82.02
74218;BME280;62579;47.288;18.646;2022-09-17T03:07:28;99011.06;;;12.73;82.03
74218;BME280;62579;47.288;18.646;2022-09-17T03:09:53;98993.63;;;12.76;82.07
74218;BME280;62579;47.288;18.646;2022-09-17T03:12:18;98993.44;;;12.74;82.11
74218;BME280;62579;47.288;18.646;2022-09-17T03:14:43;98990.88;;;12.76;82.38
74218;BME280;62579;47.288;18.646;2022-09-17T03:17:09;98982.88;;;12.78;82.17
74218;BME280;62579;47.288;18.646;2022-09-17T03:19:35;98972.31;;;12.75;82.47
74218;BME280;62579;47.288;18.646;2022-09-17T03:22:00;98968.19;;;12.81;82.20
74218;BME280;62579;47.288;18.646;2022-09-17T03:24:25;98954.78;;;12.70;82.72
74218;BME280;62579;47.288;18.646;2022-09-17T03:26:51;98961.59;;;12.77;82.08
74218;BME280;62579;47.288;18.646;2022-09-17T03:29:16;98960.53;;;12.80;82.41
74218;BME280;62579;47.288;18.646;2022-09-17T03:31:41;98959.47;;;12.83;82.24
74218;BME280;62579;47.288;18.646;2022-09-17T03:34:07;98948.69;;;12.77;82.30
74218;BME280;62579;47.288;18.646;2022-09-17T03:36:32;98944.28;;;12.74;81.74
74218;BME280;62579;47.288;18.646;2022-09-17T03:38:57;98955.06;;;12.80;81.55
74218;BME280;62579;47.288;18.646;2022-09-17T03:41:23;98954.06;;;12.70;81.93
74218;BME280;62579;47.288;18.646;2022-09-17T03:43:48;98946.28;;;12.74;81.34
74218;BME280;62579;47.288;18.646;2022-09-17T03:46:14;98973.28;;;12.64;81.80
74218;BME280;62579;47.288;18.646;2022-09-17T03:48:39;98965.63;;;12.62;81.67
74218;BME280;62579;47.288;18.646;2022-09-17T03:51:05;98963.91;;;12.73;81.06
74218;BME280;62579;47.288;18.646;2022-09-17T03:53:30;98977.38;;;12.71;81.26
74218;BME280;62579;47.288;18.646;2022-09-17T03:55:56;98982.81;;;12.71;81.01
74218;BME280;62579;47.288;18.646;2022-09-17T03:58:21;98977.50;;;12.65;81.05
74218;BME280;62579;47.288;18.646;2022-09-17T04:00:47;98974.25;;;12.67;80.67
74218;BME280;62579;47.288;18.646;2022-09-17T04:03:17;98979.47;;;12.64;80.43
74218;BME280;62579;47.288;18.646;2022-09-17T04:05:42;98976.81;;;12.72;79.87
74218;BME280;62579;47.288;18.646;2022-09-17T04:08:07;98975.25;;;12.77;79.37
74218;BME280;62579;47.288;18.646;2022-09-17T04:10:32;98980.72;;;12.77;79.59
74218;BME280;62579;47.288;18.646;2022-09-17T04:12:57;98981.28;;;12.62;80.21
74218;BME280;62579;47.288;18.646;2022-09-17T04:15:23;98971.78;;;12.76;79.82
74218;BME280;62579;47.288;18.646;2022-09-17T04:17:48;98962.84;;;12.76;79.76
74218;BME280;62579;47.288;18.646;2022-09-17T04:20:13;98954.34;;;12.79;79.65
74218;BME280;62579;47.288;18.646;2022-09-17T04:22:38;98959.78;;;12.79;79.49
74218;BME280;62579;47.288;18.646;2022-09-17T04:25:04;98962.47;;;12.72;79.47
74218;BME280;62579;47.288;18.646;2022-09-17T04:27:29;98960.91;;;12.63;79.55
74218;BME280;62579;47.288;18.646;2022-09-17T04:29:54;98952.44;;;12.53;80.32
74218;BME280;62579;47.288;18.646;2022-09-17T04:32:19;98960.84;;;12.55;79.93
74218;BME280;62579;47.288;18.646;2022-09-17T04:34:45;98951.38;;;12.56;79.30
74218;BME280;62579;47.288;18.646;2022-09-17T04:37:10;98946.53;;;12.62;79.21
74218;BME280;62579;47.288;18.646;2022-09-17T04:39:35;98935.25;;;12.45;80.40
74218;BME280;62579;47.288;18.646;2022-09-17T04:42:02;98949.25;;;12.62;79.70
74218;BME280;62579;47.288;18.646;2022-09-17T04:44:27;98937.53;;;12.54;79.36
74218;BME280;62579;47.288;18.646;2022-09-17T04:46:52;98934.41;;;12.50;79.85
74218;BME280;62579;47.288;18.646;2022-09-17T04:49:18;98927.84;;;12.67;78.98
74218;BME280;62579;47.288;18.646;2022-09-17T04:51:43;98924.81;;;12.57;79.36
74218;BME280;62579;47.288;18.646;2022-09-17T04:54:08;98916.19;;;12.66;78.83
74218;BME280;62579;47.288;18.646;2022-09-17T04:56:33;98921.22;;;12.62;79.14
74218;BME280;62579;47.288;18.646;2022-09-17T04:58:58;98930.16;;;12.62;78.41
74218;BME280;62579;47.288;18.646;2022-09-17T05:01:24;98951.91;;;12.55;79.00
74218;BME280;62579;47.288;18.646;2022-09-17T05:03:49;98951.91;;;12.55;78.55
74218;BME280;62579;47.288;18.646;2022-09-17T05:06:14;98957.06;;;12.58;78.94
74218;BME280;62579;47.288;18.646;2022-09-17T05:08:39;98965.56;;;12.55;78.81
74218;BME280;62579;47.288;18.646;2022-09-17T05:11:04;98968.62;;;12.51;78.34
74218;BME280;62579;47.288;18.646;2022-09-17T05:13:29;98984.34;;;12.58;78.46
74218;BME280;62579;47.288;18.646;2022-09-17T05:15:55;98990.88;;;12.55;78.67
74218;BME280;62579;47.288;18.646;2022-09-17T05:18:23;98995.03;;;12.56;78.83
74218;BME280;62579;47.288;18.646;2022-09-17T05:20:48;99008.06;;;12.63;78.23
74218;BME280;62579;47.288;18.646;2022-09-17T05:23:13;98999.44;;;12.59;78.39
74218;BME280;62579;47.288;18.646;2022-09-17T05:25:39;98995.28;;;12.58;78.39
74218;BME280;62579;47.288;18.646;2022-09-17T05:28:04;98994.53;;;12.58;78.51
74218;BME280;62579;47.288;18.646;2022-09-17T05:30:29;99004.09;;;12.51;79.07
74218;BME280;62579;47.288;18.646;2022-09-17T05:32:58;99006.44;;;12.47;78.83
74218;BME280;62579;47.288;18.646;2022-09-17T05:35:24;98999.69;;;12.48;78.97
74218;BME280;62579;47.288;18.646;2022-09-17T05:37:49;99004.41;;;12.61;78.30
74218;BME280;62579;47.288;18.646;2022-09-17T05:40:14;99001.69;;;12.48;78.67
74218;BME280;62579;47.288;18.646;2022-09-17T05:42:40;99011.22;;;12.54;78.77
74218;BME280;62579;47.288;18.646;2022-09-17T05:45:05;99019.72;;;12.51;79.16
74218;BME280;62579;47.288;18.646;2022-09-17T05:47:31;99019.34;;;12.47;79.31
74218;BME280;62579;47.288;18.646;2022-09-17T05:49:56;99031.94;;;12.50;79.05
74218;BME280;62579;47.288;18.646;2022-09-17T05:52:21;99026.66;;;12.52;78.69
74218;BME280;62579;47.288;18.646;2022-09-17T05:54:50;99028.56;;;12.44;79.18
74218;BME280;62579;47.288;18.646;2022-09-17T05:57:15;99030.06;;;12.45;79.41
74218;BME280;62579;47.288;18.646;2022-09-17T05:59:40;99024.78;;;12.47;79.78
74218;BME280;62579;47.288;18.646;2022-09-17T06:02:06;99034.84;;;12.52;79.14
74218;BME280;62579;47.288;18.646;2022-09-17T06:04:31;99024.94;;;12.62;79.32
74218;BME280;62579;47.288;18.646;2022-09-17T06:06:56;99030.88;;;12.53;79.49
74218;BME280;62579;47.288;18.646;2022-09-17T06:09:21;99020.34;;;12.57;79.32
74218;BME280;62579;47.288;18.646;2022-09-17T06:11:46;99019.22;;;12.52;79.91
74218;BME280;62579;47.288;18.646;2022-09-17T06:14:11;99031.19;;;12.49;80.00
74218;BME280;62579;47.288;18.646;2022-09-17T06:16:37;99019.72;;;12.51;80.33
74218;BME280;62579;47.288;18.646;2022-09-17T06:19:02;99017.81;;;12.59;80.11
74218;BME280;62579;47.288;18.646;2022-09-17T06:21:28;99017.81;;;12.59;79.98
74218;BME280;62579;47.288;18.646;2022-09-17T06:23:53;99020.22;;;12.62;79.91
74218;BME280;62579;47.288;18.646;2022-09-17T06:26:19;99016.97;;;12.64;80.14
74218;BME280;62579;47.288;18.646;2022-09-17T06:28:44;99024.50;;;12.71;79.94
74218;BME280;62579;47.288;18.646;2022-09-17T06:31:10;99023.66;;;12.76;79.93
74218;BME280;62579;47.288;18.646;2022-09-17T06:33:36;99025.72;;;12.83;79.67
74218;BME280;62579;47.288;18.646;2022-09-17T06:36:02;99025.53;;;12.81;79.81
74218;BME280;62579;47.288;18.646;2022-09-17T06:38:28;99041.81;;;12.74;79.65
74218;BME280;62579;47.288;18.646;2022-09-17T06:40:54;99041.22;;;12.88;79.13
74218;BME280;62579;47.288;18.646;2022-09-17T06:43:20;99039.00;;;13.00;78.37
74218;BME280;62579;47.288;18.646;2022-09-17T06:48:16;99046.22;;;13.10;77.43
74218;BME280;62579;47.288;18.646;2022-09-17T06:50:42;99034.22;;;13.13;77.23
74218;BME280;62579;47.288;18.646;2022-09-17T06:53:07;99033.47;;;12.92;78.35
74218;BME280;62579;47.288;18.646;2022-09-17T06:55:33;99050.03;;;12.94;78.71
74218;BME280;62579;47.288;18.646;2022-09-17T06:57:58;99052.38;;;12.90;77.14
74218;BME280;62579;47.288;18.646;2022-09-17T07:00:24;99050.47;;;12.98;77.60
74218;BME280;62579;47.288;18.646;2022-09-17T07:02:56;99058.63;;;13.11;78.11
74218;BME280;62579;47.288;18.646;2022-09-17T07:05:21;99055.34;;;13.13;76.80
74218;BME280;62579;47.288;18.646;2022-09-17T07:07:46;99051.16;;;13.12;77.40
74218;BME280;62579;47.288;18.646;2022-09-17T07:10:12;99038.09;;;13.39;76.59
74218;BME280;62579;47.288;18.646;2022-09-17T07:12:40;99032.84;;;13.20;77.68
74218;BME280;62579;47.288;18.646;2022-09-17T07:15:06;99034.22;;;13.34;76.41
74218;BME280;62579;47.288;18.646;2022-09-17T07:17:31;99032.34;;;13.29;75.85
74218;BME280;62579;47.288;18.646;2022-09-17T07:19:56;99033.63;;;13.28;75.61
74218;BME280;62579;47.288;18.646;2022-09-17T07:22:23;99028.38;;;13.30;76.46
74218;BME280;62579;47.288;18.646;2022-09-17T07:24:48;99028.97;;;13.36;75.74
74218;BME280;62579;47.288;18.646;2022-09-17T07:27:13;99030.16;;;13.28;76.15
74218;BME280;62579;47.288;18.646;2022-09-17T07:29:39;99031.28;;;13.32;75.70
74218;BME280;62579;47.288;18.646;2022-09-17T07:32:05;99039.97;;;13.44;75.21
74218;BME280;62579;47.288;18.646;2022-09-17T07:34:31;99045.38;;;13.36;76.11
74218;BME280;62579;47.288;18.646;2022-09-17T07:36:56;99041.03;;;13.41;76.30
74218;BME280;62579;47.288;18.646;2022-09-17T07:39:21;99045.09;;;13.47;75.64
74218;BME280;62579;47.288;18.646;2022-09-17T07:41:46;99046.31;;;13.67;74.70
74218;BME280;62579;47.288;18.646;2022-09-17T07:44:12;99045.38;;;13.64;75.68
74218;BME280;62579;47.288;18.646;2022-09-17T07:46:37;99041.59;;;13.67;75.22
74218;BME280;62579;47.288;18.646;2022-09-17T07:49:02;99049.25;;;13.69;74.23
74218;BME280;62579;47.288;18.646;2022-09-17T07:51:27;99051.25;;;13.68;74.34
74218;BME280;62579;47.288;18.646;2022-09-17T07:53:53;99063.50;;;13.75;74.62
74218;BME280;62579;47.288;18.646;2022-09-17T07:56:19;99068.78;;;13.73;73.94
74218;BME280;62579;47.288;18.646;2022-09-17T07:58:44;99081.25;;;13.61;74.13
74218;BME280;62579;47.288;18.646;2022-09-17T08:01:10;99086.03;;;13.60;73.52
74218;BME280;62579;47.288;18.646;2022-09-17T08:03:36;99097.66;;;13.61;73.55
74218;BME280;62579;47.288;18.646;2022-09-17T08:06:03;99097.06;;;13.75;72.18
74218;BME280;62579;47.288;18.646;2022-09-17T08:08:30;99102.00;;;13.56;72.55
74218;BME280;62579;47.288;18.646;2022-09-17T08:10:58;99104.28;;;13.65;71.78
74218;BME280;62579;47.288;18.646;2022-09-17T08:13:23;99108.09;;;13.62;72.63
74218;BME280;62579;47.288;18.646;2022-09-17T08:15:48;99110.22;;;13.56;72.46
74218;BME280;62579;47.288;18.646;2022-09-17T08:18:14;99106.53;;;13.54;73.20
74218;BME280;62579;47.288;18.646;2022-09-17T08:20:40;99104.41;;;13.60;72.41
74218;BME280;62579;47.288;18.646;2022-09-17T08:23:05;99104.13;;;13.50;73.77
74218;BME280;62579;47.288;18.646;2022-09-17T08:25:30;99109.34;;;13.41;72.88
74218;BME280;62579;47.288;18.646;2022-09-17T08:27:55;99107.66;;;13.58;74.17
74218;BME280;62579;47.288;18.646;2022-09-17T08:30:21;99102.16;;;13.51;73.87
74218;BME280;62579;47.288;18.646;2022-09-17T08:32:46;99095.69;;;13.41;75.30
74218;BME280;62579;47.288;18.646;2022-09-17T08:35:11;99095.00;;;13.48;74.48
74218;BME280;62579;47.288;18.646;2022-09-17T08:37:40;99084.53;;;13.59;75.02
74218;BME280;62579;47.288;18.646;2022-09-17T08:40:08;99077.91;;;13.47;75.54
74218;BME280;62579;47.288;18.646;2022-09-17T08:42:40;99081.94;;;13.54;75.03
74218;BME280;62579;47.288;18.646;2022-09-17T08:45:11;99080.34;;;13.38;75.49
74218;BME280;62579;47.288;18.646;2022-09-17T08:47:38;99088.63;;;13.24;76.25
74218;BME280;62579;47.288;18.646;2022-09-17T08:50:10;99098.56;;;13.35;75.75
74218;BME280;62579;47.288;18.646;2022-09-17T08:52:51;99095.34;;;13.23;75.52
74218;BME280;62579;47.288;18.646;2022-09-17T08:55:39;99092.34;;;13.35;75.35
74218;BME280;62579;47.288;18.646;2022-09-17T08:58:16;99096.13;;;13.32;75.07
74218;BME280;62579;47.288;18.646;2022-09-17T09:00:49;99090.59;;;13.24;75.61
74218;BME280;62579;47.288;18.646;2022-09-17T09:05:53;99092.84;;;13.12;75.58
74218;BME280;62579;47.288;18.646;2022-09-17T09:08:36;99085.87;;;13.24;74.45
74218;BME280;62579;47.288;18.646;2022-09-17T09:11:05;99087.81;;;13.16;75.44
74218;BME280;62579;47.288;18.646;2022-09-17T09:13:42;99086.13;;;13.13;74.03
74218;BME280;62579;47.288;18.646;2022-09-17T09:16:13;99099.16;;;13.41;72.07
74218;BME280;62579;47.288;18.646;2022-09-17T09:18:39;99093.87;;;13.43;72.58
74218;BME280;62579;47.288;18.646;2022-09-17T09:23:51;99086.72;;;13.61;70.86
74218;BME280;62579;47.288;18.646;2022-09-17T09:26:18;99089.75;;;13.50;71.93
74218;BME280;62579;47.288;18.646;2022-09-17T09:34:00;99089.88;;;13.65;71.21
74218;BME280;62579;47.288;18.646;2022-09-17T09:36:27;99083.56;;;13.77;70.41
74218;BME280;62579;47.288;18.646;2022-09-17T09:38:54;99080.09;;;13.77;70.77
74218;BME280;62579;47.288;18.646;2022-09-17T09:41:25;99081.06;;;13.79;71.14
74218;BME280;62579;47.288;18.646;2022-09-17T09:43:58;99079.91;;;13.75;69.56
74218;BME280;62579;47.288;18.646;2022-09-17T09:51:29;99082.03;;;13.90;70.17
74218;BME280;62579;47.288;18.646;2022-09-17T09:56:32;99088.53;;;13.79;68.75
74218;BME280;62579;47.288;18.646;2022-09-17T09:58:59;99081.25;;;13.81;68.01
74218;BME280;62579;47.288;18.646;2022-09-17T10:01:25;99076.31;;;13.80;68.75
74218;BME280;62579;47.288;18.646;2022-09-17T10:03:51;99083.38;;;13.75;69.76
74218;BME280;62579;47.288;18.646;2022-09-17T10:06:18;99084.88;;;13.76;68.75
74218;BME280;62579;47.288;18.646;2022-09-17T10:11:25;99062.84;;;13.82;68.26
74218;BME280;62579;47.288;18.646;2022-09-17T10:13:50;99052.28;;;13.86;68.70
74218;BME280;62579;47.288;18.646;2022-09-17T10:16:23;99042.91;;;14.02;68.97
74218;BME280;62579;47.288;18.646;2022-09-17T10:19:02;99019.19;;;14.05;69.67
74218;BME280;62579;47.288;18.646;2022-09-17T10:21:38;99042.44;;;13.91;68.23
74218;BME280;62579;47.288;18.646;2022-09-17T10:24:09;99048.19;;;14.00;69.49
74218;BME280;62579;47.288;18.646;2022-09-17T10:26:39;99031.88;;;13.87;70.60
74218;BME280;62579;47.288;18.646;2022-09-17T10:29:09;99043.63;;;14.03;71.21
74218;BME280;62579;47.288;18.646;2022-09-17T10:31:51;99044.66;;;13.92;70.30
74218;BME280;62579;47.288;18.646;2022-09-17T10:34:18;99034.31;;;13.98;70.03
74218;BME280;62579;47.288;18.646;2022-09-17T10:36:44;99026.78;;;13.91;70.89
74218;BME280;62579;47.288;18.646;2022-09-17T10:39:44;99014.00;;;13.86;69.75
74218;BME280;62579;47.288;18.646;2022-09-17T10:42:15;99003.19;;;13.80;69.91
74218;BME280;62579;47.288;18.646;2022-09-17T10:44:53;98977.53;;;13.91;68.87
74218;BME280;62579;47.288;18.646;2022-09-17T10:47:29;98981.44;;;14.03;69.47
74218;BME280;62579;47.288;18.646;2022-09-17T10:49:55;98987.13;;;14.13;69.62
74218;BME280;62579;47.288;18.646;2022-09-17T10:52:25;98998.75;;;13.98;70.04
74218;BME280;62579;47.288;18.646;2022-09-17T10:57:22;99037.47;;;14.10;68.74
74218;BME280;62579;47.288;18.646;2022-09-17T11:05:27;99049.69;;;14.09;68.78
74218;BME280;62579;47.288;18.646;2022-09-17T11:07:55;99046.81;;;14.14;67.60
74218;BME280;62579;47.288;18.646;2022-09-17T11:10:29;99045.88;;;14.12;67.24
74218;BME280;62579;47.288;18.646;2022-09-17T11:20:39;99062.19;;;13.97;67.54
74218;BME280;62579;47.288;18.646;2022-09-17T11:34:28;99019.59;;;14.09;68.62
74218;BME280;62579;47.288;18.646;2022-09-17T11:36:57;99015.94;;;14.06;68.37
74218;BME280;62579;47.288;18.646;2022-09-17T11:39:33;99008.28;;;14.12;66.76
74218;BME280;62579;47.288;18.646;2022-09-17T11:42:02;98994.06;;;14.06;65.76
74218;BME280;62579;47.288;18.646;2022-09-17T11:44:31;98976.38;;;14.15;67.08
74218;BME280;62579;47.288;18.646;2022-09-17T11:47:04;98971.13;;;14.24;65.72
74218;BME280;62579;47.288;18.646;2022-09-17T11:49:42;98956.81;;;14.03;65.46
74218;BME280;62579;47.288;18.646;2022-09-17T11:52:12;98953.97;;;14.16;63.21
74218;BME280;62579;47.288;18.646;2022-09-17T11:54:49;98940.44;;;14.11;63.92
74218;BME280;62579;47.288;18.646;2022-09-17T11:57:18;98937.16;;;14.12;65.60
74218;BME280;62579;47.288;18.646;2022-09-17T12:04:46;98943.53;;;14.15;61.88
74218;BME280;62579;47.288;18.646;2022-09-17T12:07:23;98930.75;;;14.10;60.24
74218;BME280;62579;47.288;18.646;2022-09-17T12:12:32;98931.66;;;14.05;61.84
74218;BME280;62579;47.288;18.646;2022-09-17T12:15:04;98925.38;;;13.81;63.68
74218;BME280;62579;47.288;18.646;2022-09-17T12:17:37;98919.03;;;13.94;63.62
74218;BME280;62579;47.288;18.646;2022-09-17T12:20:05;98913.72;;;13.89;64.28
74218;BME280;62579;47.288;18.646;2022-09-17T12:22:34;98912.13;;;14.01;64.57
74218;BME280;62579;47.288;18.646;2022-09-17T12:25:01;98919.44;;;14.06;64.98
74218;BME280;62579;47.288;18.646;2022-09-17T12:40:40;98917.38;;;13.91;63.73
74218;BME280;62579;47.288;18.646;2022-09-17T12:43:17;98912.97;;;13.88;63.39
74218;BME280;62579;47.288;18.646;2022-09-17T12:45:56;98921.31;;;13.75;63.83
74218;BME280;62579;47.288;18.646;2022-09-17T12:48:40;98921.72;;;13.79;63.30
74218;BME280;62579;47.288;18.646;2022-09-17T12:54:00;98938.84;;;13.79;63.36
74218;BME280;62579;47.288;18.646;2022-09-17T12:59:07;98925.87;;;13.80;63.30
74218;BME280;62579;47.288;18.646;2022-09-17T13:01:53;98923.38;;;13.82;62.58
74218;BME280;62579;47.288;18.646;2022-09-17T13:04:23;98922.06;;;13.75;63.02
74218;BME280;62579;47.288;18.646;2022-09-17T13:09:41;98920.91;;;13.63;64.57
74218;BME280;62579;47.288;18.646;2022-09-17T13:12:13;98925.44;;;13.61;64.02
74218;BME280;62579;47.288;18.646;2022-09-17T13:14:58;98916.22;;;13.71;63.86
74218;BME280;62579;47.288;18.646;2022-09-17T13:17:37;98902.31;;;13.69;64.10
74218;BME280;62579;47.288;18.646;2022-09-17T13:22:48;98881.19;;;13.70;64.32
74218;BME280;62579;47.288;18.646;2022-09-17T13:25:14;98882.25;;;13.67;64.97
74218;BME280;62579;47.288;18.646;2022-09-17T13:27:40;98872.22;;;13.62;64.66
74218;BME280;62579;47.288;18.646;2022-09-17T13:30:06;98861.12;;;13.67;65.82
74218;BME280;62579;47.288;18.646;2022-09-17T13:46:15;98848.31;;;13.47;65.08
74218;BME280;62579;47.288;18.646;2022-09-17T13:48:45;98847.56;;;13.47;65.14
74218;BME280;62579;47.288;18.646;2022-09-17T13:53:53;98876.34;;;13.48;65.15
74218;BME280;62579;47.288;18.646;2022-09-17T13:56:36;98880.87;;;13.45;65.58
74218;BME280;62579;47.288;18.646;2022-09-17T13:59:05;98876.00;;;13.51;65.40
74218;BME280;62579;47.288;18.646;2022-09-17T14:07:00;98881.25;;;13.42;65.06
74218;BME280;62579;47.288;18.646;2022-09-17T14:15:01;98892.47;;;13.31;64.85
74218;BME280;62579;47.288;18.646;2022-09-17T14:20:10;98886.63;;;13.27;66.11
74218;BME280;62579;47.288;18.646;2022-09-17T14:22:36;98894.38;;;13.15;66.25
74218;BME280;62579;47.288;18.646;2022-09-17T14:25:01;98897.03;;;13.28;66.51
74218;BME280;62579;47.288;18.646;2022-09-17T14:30:18;98896.28;;;13.28;65.33
74218;BME280;62579;47.288;18.646;2022-09-17T14:32:49;98908.09;;;13.22;65.67
74218;BME280;62579;47.288;18.646;2022-09-17T14:37:46;98905.75;;;13.06;66.16
74218;BME280;62579;47.288;18.646;2022-09-17T14:40:14;98904.44;;;12.99;66.37
74218;BME280;62579;47.288;18.646;2022-09-17T14:42:41;98907.62;;;13.11;65.80
74218;BME280;62579;47.288;18.646;2022-09-17T14:45:11;98906.91;;;12.90;66.18
74218;BME280;62579;47.288;18.646;2022-09-17T14:47:37;98907.66;;;12.90;67.21
74218;BME280;62579;47.288;18.646;2022-09-17T14:50:21;98908.44;;;12.98;67.50
74218;BME280;62579;47.288;18.646;2022-09-17T14:52:47;98908.91;;;12.89;65.90
74218;BME280;62579;47.288;18.646;2022-09-17T14:55:17;98918.03;;;12.92;66.59
74218;BME280;62579;47.288;18.646;2022-09-17T14:57:51;98916.09;;;13.00;66.40
74218;BME280;62579;47.288;18.646;2022-09-17T15:00:27;98919.63;;;13.08;66.72
74218;BME280;62579;47.288;18.646;2022-09-17T15:02:55;98918.81;;;13.00;66.49
74218;BME280;62579;47.288;18.646;2022-09-17T15:10:45;98921.16;;;12.96;67.91
74218;BME280;62579;47.288;18.646;2022-09-17T15:13:17;98917.69;;;12.95;67.80
74218;BME280;62579;47.288;18.646;2022-09-17T15:15:50;98916.34;;;12.89;67.96
74218;BME280;62579;47.288;18.646;2022-09-17T15:18:16;98901.13;;;12.93;68.56
74218;BME280;62579;47.288;18.646;2022-09-17T15:20:41;98889.50;;;13.00;68.10
74218;BME280;62579;47.288;18.646;2022-09-17T15:23:15;98884.94;;;12.95;68.66
74218;BME280;62579;47.288;18.646;2022-09-17T15:25:42;98882.66;;;12.86;69.39
74218;BME280;62579;47.288;18.646;2022-09-17T15:28:27;98876.03;;;12.74;70.91
74218;BME280;62579;47.288;18.646;2022-09-17T15:30:53;98872.81;;;12.83;70.28
74218;BME280;62579;47.288;18.646;2022-09-17T15:33:18;98870.22;;;12.78;70.78
74218;BME280;62579;47.288;18.646;2022-09-17T15:38:25;98860.72;;;12.71;71.14